DW6863 Weather Reports


Display with metric or nautical units.
time (UTC)temp
F
wind
direction
speed
MPH
gust
MPH
rain 1hr
in
rain 24hr
in
rain mn
in
humidity
%
barometer
mb
20211130032515 55 135 6.0 11.0 0.00 0.02 0.01 87 1022.9
20211130022003 53 180 0.0 0.0 0.00 0.05 0.01 92 1023.6
20211130012017 55 135 5.0 11.0 0.00 0.07 0.01 89 1023.6
20211130011016 55 90 3.0 6.0 0.00 0.07 0.01 90 1023.6
20211130003505 55 135 4.0 8.0 0.00 0.07 0.01 91 1023.9
20211130003008 54 135 3.0 8.0 0.00 0.07 0.01 91 1023.6
20211130002506 54 135 4.0 6.0 0.00 0.07 0.01 91 1023.9
20211130002005 54 90 3.0 7.0 0.00 0.07 0.01 91 1023.9
20211130001508 54 135 3.0 9.0 0.00 0.07 0.01 91 1023.6
20211130001005 54 90 5.0 8.0 0.00 0.07 0.01 91 1023.9
20211130000503 54 90 3.0 7.0 0.00 0.07 0.01 91 1023.6
20211130000014 54 90 4.0 8.0 0.00 0.07 0.01 91 1023.6
20211129235513 54 90 5.0 7.0 0.00 0.07 0.01 91 1023.6
20211129235013 54 135 4.0 9.0 0.00 0.07 0.01 91 1023.9
20211129234018 54 112 6.0 9.0 0.00 0.07 0.01 92 1023.6
20211129232013 54 90 7.0 11.0 0.00 0.08 0.01 93 1023.9
20211129231514 54 135 4.0 8.0 0.00 0.09 0.01 93 1024.3
20211129231013 54 135 4.0 8.0 0.00 0.09 0.01 93 1023.9
20211129230012 53 135 6.0 11.0 0.00 0.09 0.01 94 1023.9
20211129224503 53 135 0.0 2.0 0.00 0.09 0.01 93 1024.3
20211129224007 53 180 0.0 3.0 0.00 0.09 0.01 93 1024.3
20211129223504 54 157 1.0 4.0 0.00 0.10 0.01 93 1024.3
20211129223003 54 157 2.0 5.0 0.00 0.10 0.01 93 1024.3
20211129222507 54 180 2.0 4.0 0.00 0.10 0.01 93 1024.3
20211129222006 54 135 1.0 5.0 0.00 0.10 0.01 93 1024.3
20211129221504 54 180 4.0 6.0 0.00 0.10 0.01 94 1024.3
20211129221003 54 180 4.0 6.0 0.00 0.10 0.01 94 1024.6
20211129220502 53 202 2.0 4.0 0.00 0.10 0.01 95 1024.3
20211129220006 53 202 2.0 3.0 0.00 0.10 0.01 94 1024.3
20211129215504 53 180 2.0 5.0 0.00 0.10 0.01 94 1024.6
20211129215008 53 202 4.0 5.0 0.00 0.10 0.01 94 1024.6
20211129214505 53 180 3.0 6.0 0.00 0.10 0.01 93 1024.6
20211129214003 54 202 3.0 6.0 0.00 0.10 0.01 93 1024.3
20211129213502 54 180 5.0 6.0 0.00 0.10 0.01 93 1024.3
20211129213006 54 202 3.0 5.0 0.00 0.10 0.01 93 1024.3
20211129212504 54 180 2.0 5.0 0.00 0.10 0.01 93 1024.3
20211129212002 54 180 2.0 4.0 0.00 0.10 0.01 93 1024.6
20211129211506 55 180 2.0 4.0 0.00 0.11 0.01 92 1024.6
20211129211004 55 180 1.0 4.0 0.00 0.11 0.01 92 1024.6
20211129210502 55 180 3.0 3.0 0.00 0.11 0.01 93 1024.6
20211129204513 54 135 2.0 11.0 0.00 0.11 0.01 94 1024.3
20211129204014 54 135 3.0 6.0 0.00 0.11 0.01 95 1024.6
20211129202505 54 180 1.0 3.0 0.00 0.12 0.01 96 1024.6
20211129202004 54 202 3.0 4.0 0.00 0.13 0.01 97 1024.9
20211129201503 53 202 3.0 4.0 0.00 0.13 0.01 97 1024.9
20211129201007 53 202 2.0 3.0 0.00 0.14 0.01 97 1024.9
20211129200505 53 202 1.0 3.0 0.00 0.14 0.01 97 1024.9
20211129200005 53 180 1.0 4.0 0.00 0.15 0.01 97 1024.9
20211129195504 53 180 2.0 4.0 0.00 0.16 0.01 97 1024.9
20211129195003 53 180 3.0 4.0 0.00 0.17 0.01 97 1024.9
20211129194502 53 180 2.0 3.0 0.00 0.17 0.01 97 1025.3
20211129194001 53 202 2.0 4.0 0.00 0.18 0.01 97 1024.9
20211129193500 53 202 1.0 4.0 0.00 0.19 0.01 98 1025.3
20211129193006 53 202 3.0 4.0 0.00 0.20 0.01 98 1025.3
20211129192505 53 225 2.0 3.0 0.00 0.20 0.01 98 1025.3
20211129192004 53 180 2.0 4.0 0.00 0.21 0.01 98 1025.3
20211129191503 54 225 2.0 3.0 0.00 0.22 0.01 98 1025.3
20211129191002 54 202 1.0 3.0 0.00 0.22 0.01 98 1025.3
20211129190506 54 180 1.0 2.0 0.00 0.23 0.01 98 1024.9
20211129190005 54 180 2.0 3.0 0.00 0.23 0.01 98 1024.9
20211129185504 54 180 2.0 3.0 0.00 0.24 0.01 98 1024.9
20211129185002 55 180 2.0 3.0 0.00 0.24 0.01 98 1024.9
20211129184501 55 180 1.0 3.0 0.00 0.25 0.01 99 1024.9
20211129184006 54 180 0.0 3.0 0.00 0.26 0.01 100 1024.9
20211129183505 54 157 0.0 3.0 0.00 0.27 0.01 100 1024.9
20211129183005 54 180 2.0 3.0 0.00 0.28 0.01 100 1024.9
20211129182502 54 180 2.0 2.0 0.00 0.29 0.01 100 1024.6
20211129182006 54 180 1.0 3.0 0.00 0.30 0.01 100 1024.9
20211129172514 53 180 2.0 5.0 0.00 0.41 0.01 100 1024.3
20211129171512 53 135 5.0 8.0 0.00 0.42 0.01 100 1023.9
20211129170014 51 135 4.0 7.0 0.00 0.48 0.01 100 1023.6
20211129165514 51 135 3.0 5.0 0.00 0.50 0.01 100 1023.9
20211129164512 50 135 4.0 6.0 0.00 0.51 0.01 100 1023.9
20211129161514 51 135 1.0 2.0 0.00 0.58 0.01 100 1023.9
20211129152514 50 90 2.0 2.0 0.00 0.67 0.01 100 1023.6
20211129152015 50 180 0.0 1.0 0.00 0.69 0.01 100 1023.6
20211129151014 50 202 2.0 4.0 0.00 0.71 0.01 100 1023.2
20211129141513 50 180 1.0 4.0 0.00 0.75 0.01 100 1022.9
20211129141013 51 180 3.0 4.0 0.00 0.75 0.01 100 1022.9
20211129140513 51 180 1.0 3.0 0.00 0.75 0.01 100 1022.9
20211129135513 51 180 1.0 3.0 0.00 0.75 0.01 100 1022.6
20211129134016 51 135 0.0 2.0 0.00 0.76 0.01 100 1022.6
20211129133516 51 135 1.0 2.0 0.00 0.77 0.01 100 1022.6
20211129132515 51 135 1.0 2.0 0.00 0.78 0.01 100 1022.6
20211129131514 51 180 1.0 2.0 0.00 0.79 0.01 100 1022.6
20211129121015 51 135 2.0 4.0 0.00 0.84 0.01 100 1022.2
20211129112512 52 135 1.0 6.0 0.00 0.88 0.01 100 1022.6
20211129111517 52 157 2.0 5.0 0.00 0.89 0.01 100 1022.6
20211129111012 52 135 4.0 6.0 0.00 0.90 0.01 100 1022.6
20211129110512 52 135 2.0 5.0 0.00 0.90 0.01 100 1022.9
20211129110001 52 135 1.0 3.0 0.00 0.91 0.01 100 1022.9
20211129072512 51 135 2.0 5.0 0.00 0.92 0.92 100 1022.6
20211129071517 51 135 3.0 5.0 0.00 0.92 0.92 100 1022.9
20211129071011 51 112 3.0 5.0 0.00 0.92 0.92 100 1022.6